Time,TemperatureF,DewpointF,PressureIn,WindDirection,WindDirectionDegrees,WindSpeedMPH,WindSpeedGustMPH,Humidity,HourlyPrecipIn,Conditions,Clouds,dailyrainin,SoftwareType,DateUTC
2013-11-24 00:00:00,43.5,40.5,30.34,NNE,16,3.0,10.0,89,0.00,CLR,CLR,0.00,WeatherDisplay:10.37,2013-11-24 00:00:00,
2013-11-24 00:10:00,43.5,40.8,30.35,NNE,23,2.0,7.0,90,0.00,CLR,CLR,0.00,WeatherDisplay:10.37,2013-11-24 00:10:00,
2013-11-24 00:20:00,43.5,40.8,30.35,North,360,1.0,4.0,90,0.00,CLR,CLR,0.00,WeatherDisplay:10.37,2013-11-24 00:20:00,
2013-11-24 00:30:00,43.3,40.6,30.36,NE,46,1.0,5.0,90,0.00,CLR,CLR,0.00,WeatherDisplay:10.37,2013-11-24 00:30:00,
2013-11-24 00:40:00,43.3,40.6,30.36,NE,34,1.0,4.0,90,0.00,CLR,CLR,0.00,WeatherDisplay:10.37,2013-11-24 00:40:00,
2013-11-24 00:50:00,43.3,40.6,30.35,NE,55,1.0,4.0,90,0.00,CLR,CLR,0.00,WeatherDisplay:10.37,2013-11-24 00:50:00,
2013-11-24 01:00:00,43.3,40.6,30.36,NE,38,1.0,4.0,90,0.00,CLR,CLR,0.00,WeatherDisplay:10.37,2013-11-24 01:00:00,
2013-11-24 01:10:00,43.3,40.6,30.35,NNE,16,0.0,4.0,90,0.00,CLR,CLR,0.00,WeatherDisplay:10.37,2013-11-24 01:10:00,
2013-11-24 01:20:00,43.3,40.6,30.35,NNE,22,1.0,4.0,90,0.00,CLR,CLR,0.00,WeatherDisplay:10.37,2013-11-24 01:20:00,
2013-11-24 01:30:00,43.2,40.4,30.35,East,87,1.0,3.0,90,0.00,CLR,CLR,0.00,WeatherDisplay:10.37,2013-11-24 01:30:00,
2013-11-24 01:40:00,43.5,40.8,30.36,NNE,20,2.0,6.0,90,0.00,CLR,CLR,0.00,WeatherDisplay:10.37,2013-11-24 01:40:00,
2013-11-24 01:50:00,43.5,40.8,30.36,North,10,1.0,6.0,90,0.00,CLR,CLR,0.00,WeatherDisplay:10.37,2013-11-24 01:50:00,
2013-11-24 02:00:00,43.3,40.6,30.36,NNE,22,2.0,5.0,90,0.00,CLR,CLR,0.00,WeatherDisplay:10.37,2013-11-24 02:00:00,
2013-11-24 02:10:00,43.5,40.8,30.36,NE,46,2.0,7.0,90,0.00,CLR,CLR,0.00,WeatherDisplay:10.37,2013-11-24 02:10:00,
2013-11-24 02:20:00,43.3,40.6,30.36,NNE,13,3.0,6.0,90,0.00,CLR,CLR,0.00,WeatherDisplay:10.37,2013-11-24 02:20:00,
2013-11-24 02:30:00,43.3,40.6,30.36,NE,35,2.0,7.0,90,0.00,CLR,CLR,0.00,WeatherDisplay:10.37,2013-11-24 02:30:00,
2013-11-24 02:40:00,43.3,40.6,30.36,NE,53,1.0,6.0,90,0.00,CLR,CLR,0.00,WeatherDisplay:10.37,2013-11-24 02:40:00,
2013-11-24 02:50:00,43.2,40.4,30.36,NNE,31,5.0,8.0,90,0.00,CLR,CLR,0.00,WeatherDisplay:10.37,2013-11-24 02:50:00,
2013-11-24 03:00:00,42.8,40.1,30.36,NE,49,2.0,8.0,90,0.00,CLR,CLR,0.00,WeatherDisplay:10.37,2013-11-24 03:00:00,
2013-11-24 03:10:00,42.8,40.1,30.36,North,10,5.0,10.0,90,0.00,CLR,CLR,0.00,WeatherDisplay:10.37,2013-11-24 03:10:00,
2013-11-24 03:20:00,42.7,40.0,30.36,NE,39,2.0,8.0,90,0.00,CLR,CLR,0.00,WeatherDisplay:10.37,2013-11-24 03:20:00,
2013-11-24 03:30:00,42.7,40.0,30.36,NNE,29,3.0,8.0,90,0.00,CLR,CLR,0.00,WeatherDisplay:10.37,2013-11-24 03:30:00,
2013-11-24 03:40:00,42.8,40.1,30.36,NE,47,2.0,6.0,90,0.00,CLR,CLR,0.00,WeatherDisplay:10.37,2013-11-24 03:40:00,
2013-11-24 03:50:00,42.6,40.2,30.36,North,7,1.0,5.0,91,0.00,CLR,CLR,0.00,WeatherDisplay:10.37,2013-11-24 03:50:00,
2013-11-24 04:00:00,42.3,39.8,30.36,NNE,19,2.0,5.0,91,0.00,CLR,CLR,0.00,WeatherDisplay:10.37,2013-11-24 04:00:00,
2013-11-24 04:10:00,42.3,39.8,30.36,NNE,31,0.0,4.0,91,0.00,CLR,CLR,0.00,WeatherDisplay:10.37,2013-11-24 04:10:00,
2013-11-24 04:20:00,42.8,40.0,30.36,NE,49,0.0,5.0,90,0.00,CLR,CLR,0.00,WeatherDisplay:10.37,2013-11-24 04:20:00,
2013-11-24 04:30:00,41.5,39.1,30.37,East,92,3.0,4.0,91,0.00,CLR,CLR,0.00,WeatherDisplay:10.37,2013-11-24 04:30:00,
2013-11-24 04:40:00,41.5,39.1,30.37,ENE,77,0.0,4.0,91,0.00,CLR,CLR,0.00,WeatherDisplay:10.37,2013-11-24 04:40:00,
2013-11-24 04:50:00,41.7,39.3,30.37,ENE,61,0.0,2.0,91,0.00,CLR,CLR,0.00,WeatherDisplay:10.37,2013-11-24 04:50:00,
2013-11-24 05:00:00,41.7,39.3,30.37,NNE,27,0.0,3.0,91,0.00,CLR,CLR,0.00,WeatherDisplay:10.37,2013-11-24 05:00:00,
2013-11-24 05:10:00,41.9,39.5,30.38,NNE,15,1.0,4.0,91,0.00,CLR,CLR,0.00,WeatherDisplay:10.37,2013-11-24 05:10:00,
2013-11-24 05:20:00,41.9,39.5,30.38,NNE,16,1.0,4.0,91,0.00,CLR,CLR,0.00,WeatherDisplay:10.37,2013-11-24 05:20:00,
2013-11-24 05:30:00,42.1,39.6,30.38,North,1,2.0,4.0,91,0.00,CLR,CLR,0.00,WeatherDisplay:10.37,2013-11-24 05:30:00,
2013-11-24 05:40:00,42.3,39.8,30.38,WNW,287,1.0,6.0,91,0.00,CLR,CLR,0.00,WeatherDisplay:10.37,2013-11-24 05:40:00,
2013-11-24 05:50:00,42.3,39.8,30.38,NNE,22,0.0,4.0,91,0.00,CLR,CLR,0.00,WeatherDisplay:10.37,2013-11-24 05:50:00,
2013-11-24 06:00:00,42.1,39.6,30.38,NE,44,1.0,5.0,91,0.00,CLR,CLR,0.00,WeatherDisplay:10.37,2013-11-24 06:00:00,
2013-11-24 06:10:00,42.1,39.6,30.39,NNE,33,0.0,5.0,91,0.00,CLR,CLR,0.00,WeatherDisplay:10.37,2013-11-24 06:10:00,
2013-11-24 06:20:00,42.1,39.6,30.39,ESE,117,0.0,1.0,91,0.00,CLR,CLR,0.00,WeatherDisplay:10.37,2013-11-24 06:20:00,
2013-11-24 06:30:00,42.3,39.8,30.39,North,9,0.0,2.0,91,0.00,CLR,CLR,0.00,WeatherDisplay:10.37,2013-11-24 06:30:00,
2013-11-24 06:40:00,42.3,39.8,30.39,ENE,68,0.0,2.0,91,0.00,CLR,CLR,0.00,WeatherDisplay:10.37,2013-11-24 06:40:00,
2013-11-24 06:50:00,42.1,39.6,30.39,East,90,0.0,1.0,91,0.00,CLR,CLR,0.00,WeatherDisplay:10.37,2013-11-24 06:50:00,
2013-11-24 07:00:00,42.3,39.8,30.40,SE,125,0.0,3.0,91,0.00,CLR,CLR,0.00,WeatherDisplay:10.37,2013-11-24 07:00:00,
2013-11-24 07:10:00,42.3,39.8,30.40,East,83,0.0,3.0,91,0.00,CLR,CLR,0.00,WeatherDisplay:10.37,2013-11-24 07:10:00,
2013-11-24 07:20:00,42.3,39.8,30.39,ENE,62,1.0,4.0,91,0.00,CLR,CLR,0.00,WeatherDisplay:10.37,2013-11-24 07:20:00,
2013-11-24 07:30:00,42.2,39.8,30.40,SE,143,2.0,3.0,91,0.00,CLR,CLR,0.00,WeatherDisplay:10.37,2013-11-24 07:30:00,
2013-11-24 07:40:00,41.8,39.3,30.40,SW,229,2.0,4.0,91,0.00,CLR,CLR,0.00,WeatherDisplay:10.37,2013-11-24 07:40:00,
2013-11-24 07:50:00,41.9,39.5,30.40,WSW,247,2.0,6.0,91,0.00,CLR,CLR,0.00,WeatherDisplay:10.37,2013-11-24 07:50:00,
2013-11-24 08:00:00,42.1,39.6,30.41,SSE,160,1.0,3.0,91,0.00,CLR,CLR,0.00,WeatherDisplay:10.37,2013-11-24 08:00:00,
2013-11-24 08:10:00,41.7,39.3,30.41,East,100,2.0,5.0,91,0.00,CLR,CLR,0.00,WeatherDisplay:10.37,2013-11-24 08:10:00,
2013-11-24 08:20:00,42.4,40.0,30.41,ENE,76,1.0,5.0,91,0.00,CLR,CLR,0.00,WeatherDisplay:10.37,2013-11-24 08:20:00,
2013-11-24 08:30:00,42.4,40.0,30.42,ENE,76,0.0,3.0,91,0.00,CLR,CLR,0.00,WeatherDisplay:10.37,2013-11-24 08:30:00,
2013-11-24 08:40:00,42.6,40.2,30.42,ENE,63,1.0,3.0,91,0.00,CLR,CLR,0.00,WeatherDisplay:10.37,2013-11-24 08:40:00,
2013-11-24 08:50:00,42.1,39.6,30.42,ENE,66,2.0,5.0,91,0.00,CLR,CLR,0.00,WeatherDisplay:10.37,2013-11-24 08:50:00,
2013-11-24 09:00:00,42.4,40.0,30.42,NE,42,1.0,6.0,91,0.00,CLR,CLR,0.00,WeatherDisplay:10.37,2013-11-24 09:00:00,
2013-11-24 09:10:00,42.6,40.2,30.42,NE,38,0.0,6.0,91,0.00,CLR,CLR,0.00,WeatherDisplay:10.37,2013-11-24 09:10:00,
2013-11-24 09:20:00,43.0,40.2,30.43,NE,42,0.0,3.0,90,0.00,CLR,CLR,0.00,WeatherDisplay:10.37,2013-11-24 09:20:00,
2013-11-24 09:30:00,43.2,40.4,30.43,NE,55,2.0,4.0,90,0.00,CLR,CLR,0.00,WeatherDisplay:10.37,2013-11-24 09:30:00,
2013-11-24 09:40:00,43.3,40.6,30.43,East,81,1.0,4.0,90,0.00,CLR,CLR,0.00,WeatherDisplay:10.37,2013-11-24 09:40:00,
2013-11-24 09:50:00,42.5,40.0,30.43,East,99,1.0,3.0,91,0.00,CLR,CLR,0.00,WeatherDisplay:10.37,2013-11-24 09:50:00,
2013-11-24 10:00:00,42.3,39.9,30.43,East,92,0.0,3.0,91,0.00,CLR,CLR,0.00,WeatherDisplay:10.37,2013-11-24 10:00:00,
2013-11-24 10:10:00,43.7,41.0,30.44,NNE,23,0.0,2.0,90,0.00,CLR,CLR,0.00,WeatherDisplay:10.37,2013-11-24 10:10:00,
2013-11-24 10:20:00,43.7,41.0,30.44,WSW,250,0.0,3.0,90,0.00,CLR,CLR,0.00,WeatherDisplay:10.37,2013-11-24 10:20:00,
2013-11-24 10:30:00,43.5,40.8,30.44,SW,223,1.0,2.0,90,0.00,CLR,CLR,0.00,WeatherDisplay:10.37,2013-11-24 10:30:00,
2013-11-24 10:40:00,43.3,40.5,30.45,SW,226,2.0,3.0,90,0.00,CLR,CLR,0.00,WeatherDisplay:10.37,2013-11-24 10:40:00,
2013-11-24 10:50:00,43.3,40.6,30.44,WSW,240,5.0,6.0,90,0.00,CLR,CLR,0.00,WeatherDisplay:10.37,2013-11-24 10:50:00,
2013-11-24 11:00:00,43.9,41.1,30.45,West,267,5.0,6.0,90,0.00,CLR,CLR,0.00,WeatherDisplay:10.37,2013-11-24 11:00:00,
2013-11-24 11:10:00,44.6,41.8,30.45,WNW,282,0.0,8.0,90,0.00,CLR,CLR,0.00,WeatherDisplay:10.37,2013-11-24 11:10:00,
2013-11-24 11:20:00,45.0,42.3,30.45,NW,309,1.0,5.0,90,0.00,CLR,CLR,0.00,WeatherDisplay:10.37,2013-11-24 11:20:00,
2013-11-24 11:30:00,45.3,42.5,30.45,NW,308,1.0,6.0,90,0.00,CLR,CLR,0.00,WeatherDisplay:10.37,2013-11-24 11:30:00,
2013-11-24 11:40:00,45.6,42.9,30.45,East,84,0.0,3.0,90,0.00,CLR,CLR,0.00,WeatherDisplay:10.37,2013-11-24 11:40:00,
2013-11-24 11:50:00,45.7,42.6,30.44,East,99,0.0,2.0,89,0.00,CLR,CLR,0.00,WeatherDisplay:10.37,2013-11-24 11:50:00,
2013-11-24 12:00:00,45.7,42.6,30.45,SSE,168,0.0,4.0,89,0.00,CLR,CLR,0.00,WeatherDisplay:10.37,2013-11-24 12:00:00,
2013-11-24 12:10:00,46.2,43.2,30.45,West,275,0.0,3.0,89,0.00,CLR,CLR,0.00,WeatherDisplay:10.37,2013-11-24 12:10:00,
2013-11-24 12:20:00,47.3,44.2,30.45,East,81,0.0,2.0,89,0.00,CLR,CLR,0.00,WeatherDisplay:10.37,2013-11-24 12:20:00,
2013-11-24 12:30:00,47.1,44.0,30.45,NE,49,0.0,2.0,89,0.00,CLR,CLR,0.00,WeatherDisplay:10.37,2013-11-24 12:30:00,
2013-11-24 12:40:00,47.3,44.2,30.45,NE,53,0.0,3.0,89,0.00,CLR,CLR,0.00,WeatherDisplay:10.37,2013-11-24 12:40:00,
2013-11-24 12:50:00,47.5,44.5,30.45,NE,45,0.0,2.0,89,0.00,CLR,CLR,0.00,WeatherDisplay:10.37,2013-11-24 12:50:00,
2013-11-24 13:00:00,47.8,44.5,30.45,NE,45,1.0,2.0,88,0.00,CLR,CLR,0.00,WeatherDisplay:10.37,2013-11-24 13:00:00,
2013-11-24 13:10:00,47.3,43.6,30.45,East,101,1.0,2.0,87,0.00,CLR,CLR,0.00,WeatherDisplay:10.37,2013-11-24 13:10:00,
2013-11-24 13:20:00,47.6,43.9,30.44,SSE,159,0.0,2.0,87,0.00,CLR,CLR,0.00,WeatherDisplay:10.37,2013-11-24 13:20:00,
2013-11-24 13:30:00,47.3,43.3,30.45,SSW,192,1.0,2.0,86,0.00,CLR,CLR,0.00,WeatherDisplay:10.37,2013-11-24 13:30:00,
2013-11-24 13:40:00,47.8,43.8,30.45,SE,139,0.0,1.0,86,0.00,CLR,CLR,0.00,WeatherDisplay:10.37,2013-11-24 13:40:00,
2013-11-24 13:50:00,48.0,44.0,30.44,NE,43,0.0,2.0,86,0.00,CLR,CLR,0.00,WeatherDisplay:10.37,2013-11-24 13:50:00,
2013-11-24 14:00:00,50.1,45.8,30.45,NW,304,0.0,2.0,85,0.00,CLR,CLR,0.00,WeatherDisplay:10.37,2013-11-24 14:00:00,
2013-11-24 14:10:00,51.1,46.4,30.45,North,355,2.0,3.0,84,0.00,CLR,CLR,0.00,WeatherDisplay:10.37,2013-11-24 14:10:00,
2013-11-24 14:20:00,49.2,44.5,30.45,SW,232,2.0,4.0,84,0.00,CLR,CLR,0.00,WeatherDisplay:10.37,2013-11-24 14:20:00,
2013-11-24 14:30:00,47.5,43.2,30.45,SW,226,0.0,5.0,85,0.00,CLR,CLR,0.00,WeatherDisplay:10.37,2013-11-24 14:30:00,
2013-11-24 14:40:00,47.8,43.5,30.45,SW,231,2.0,3.0,85,0.00,CLR,CLR,0.00,WeatherDisplay:10.37,2013-11-24 14:40:00,
2013-11-24 14:50:00,47.1,42.8,30.45,South,190,1.0,3.0,85,0.00,CLR,CLR,0.00,WeatherDisplay:10.37,2013-11-24 14:50:00,
2013-11-24 15:00:00,47.1,43.1,30.45,South,184,1.0,3.0,86,0.00,CLR,CLR,0.00,WeatherDisplay:10.37,2013-11-24 15:00:00,
2013-11-24 15:10:00,46.9,43.0,30.45,South,173,1.0,3.0,86,0.00,CLR,CLR,0.00,WeatherDisplay:10.37,2013-11-24 15:10:00,
2013-11-24 15:20:00,46.9,43.0,30.45,South,187,1.0,3.0,86,0.00,CLR,CLR,0.00,WeatherDisplay:10.37,2013-11-24 15:20:00,
2013-11-24 15:30:00,46.6,42.6,30.45,SW,225,1.0,2.0,86,0.00,CLR,CLR,0.00,WeatherDisplay:10.37,2013-11-24 15:30:00,
2013-11-24 15:40:00,46.4,42.4,30.45,SW,225,1.0,2.0,86,0.00,CLR,CLR,0.00,WeatherDisplay:10.37,2013-11-24 15:40:00,
2013-11-24 15:50:00,46.4,42.4,30.45,West,260,2.0,3.0,86,0.00,CLR,CLR,0.00,WeatherDisplay:10.37,2013-11-24 15:50:00,
2013-11-24 16:00:00,46.2,42.3,30.46,SSW,212,2.0,4.0,86,0.00,CLR,CLR,0.00,WeatherDisplay:10.37,2013-11-24 16:00:00,
2013-11-24 16:10:00,46.0,42.1,30.45,SW,223,1.0,15.0,86,0.00,CLR,CLR,0.00,WeatherDisplay:10.37,2013-11-24 16:10:00,
2013-11-24 16:20:00,46.0,42.4,30.45,WSW,253,1.0,3.0,87,0.00,CLR,CLR,0.00,WeatherDisplay:10.37,2013-11-24 16:20:00,
2013-11-24 16:30:00,46.4,42.7,30.46,WSW,257,0.0,2.0,87,0.00,CLR,CLR,0.00,WeatherDisplay:10.37,2013-11-24 16:30:00,
2013-11-24 16:40:00,46.8,43.1,30.46,WNW,284,0.0,2.0,87,0.00,CLR,CLR,0.00,WeatherDisplay:10.37,2013-11-24 16:40:00,
2013-11-24 16:50:00,46.8,43.1,30.46,NNW,327,0.0,2.0,87,0.00,CLR,CLR,0.00,WeatherDisplay:10.37,2013-11-24 16:50:00,
2013-11-24 17:00:00,46.8,43.1,30.46,WNW,284,0.0,2.0,87,0.00,CLR,CLR,0.00,WeatherDisplay:10.37,2013-11-24 17:00:00,
2013-11-24 17:10:00,46.8,43.1,30.47,WNW,282,1.0,2.0,87,0.00,CLR,CLR,0.00,WeatherDisplay:10.37,2013-11-24 17:10:00,
2013-11-24 17:20:00,46.8,42.8,30.47,West,278,0.0,2.0,86,0.00,CLR,CLR,0.00,WeatherDisplay:10.37,2013-11-24 17:20:00,
2013-11-24 17:30:00,47.1,43.4,30.47,NW,304,0.0,3.0,87,0.00,CLR,CLR,0.00,WeatherDisplay:10.37,2013-11-24 17:30:00,
2013-11-24 17:40:00,46.9,43.0,30.48,NNW,331,0.0,2.0,86,0.00,CLR,CLR,0.00,WeatherDisplay:10.37,2013-11-24 17:40:00,
2013-11-24 17:50:00,46.9,43.0,30.48,NW,316,1.0,2.0,86,0.00,CLR,CLR,0.00,WeatherDisplay:10.37,2013-11-24 17:50:00,
2013-11-24 18:00:00,46.9,43.0,30.48,North,356,0.0,2.0,86,0.00,CLR,CLR,0.00,WeatherDisplay:10.37,2013-11-24 18:00:00,
2013-11-24 18:10:00,46.8,42.8,30.49,NE,40,0.0,1.0,86,0.00,CLR,CLR,0.00,WeatherDisplay:10.37,2013-11-24 18:10:00,
2013-11-24 18:20:00,46.6,42.6,30.49,NE,43,0.0,2.0,86,0.00,CLR,CLR,0.00,WeatherDisplay:10.37,2013-11-24 18:20:00,
2013-11-24 18:30:00,46.6,42.6,30.49,NE,45,0.0,2.0,86,0.00,CLR,CLR,0.00,WeatherDisplay:10.37,2013-11-24 18:30:00,
2013-11-24 18:40:00,46.4,42.4,30.49,NE,50,1.0,3.0,86,0.00,CLR,CLR,0.00,WeatherDisplay:10.37,2013-11-24 18:40:00,
2013-11-24 18:50:00,46.6,42.6,30.49,ENE,60,2.0,17.0,86,0.00,CLR,CLR,0.00,WeatherDisplay:10.37,2013-11-24 18:50:00,
2013-11-24 19:00:00,46.6,42.6,30.49,NE,45,2.0,3.0,86,0.00,CLR,CLR,0.00,WeatherDisplay:10.37,2013-11-24 19:00:00,
2013-11-24 19:10:00,46.4,42.4,30.50,NE,52,1.0,3.0,86,0.00,CLR,CLR,0.00,WeatherDisplay:10.37,2013-11-24 19:10:00,
2013-11-24 19:20:00,46.6,42.6,30.50,ENE,58,1.0,2.0,86,0.00,CLR,CLR,0.00,WeatherDisplay:10.37,2013-11-24 19:20:00,
2013-11-24 19:30:00,46.4,42.5,30.50,East,83,1.0,4.0,86,0.00,CLR,CLR,0.00,WeatherDisplay:10.37,2013-11-24 19:30:00,
2013-11-24 19:40:00,45.9,41.9,30.50,East,101,1.0,2.0,86,0.00,CLR,CLR,0.00,WeatherDisplay:10.37,2013-11-24 19:40:00,
2013-11-24 19:50:00,45.6,41.7,30.50,ESE,122,1.0,3.0,86,0.00,CLR,CLR,0.00,WeatherDisplay:10.37,2013-11-24 19:50:00,
2013-11-24 20:00:00,45.7,42.0,30.51,East,94,1.0,5.0,87,0.00,CLR,CLR,0.00,WeatherDisplay:10.37,2013-11-24 20:00:00,
2013-11-24 20:10:00,45.9,42.2,30.51,ENE,74,1.0,4.0,87,0.00,CLR,CLR,0.00,WeatherDisplay:10.37,2013-11-24 20:10:00,
2013-11-24 20:20:00,46.0,42.4,30.51,NNW,342,0.0,5.0,87,0.00,CLR,CLR,0.00,WeatherDisplay:10.37,2013-11-24 20:20:00,
2013-11-24 20:30:00,45.9,42.2,30.51,NNE,31,1.0,5.0,87,0.00,CLR,CLR,0.00,WeatherDisplay:10.37,2013-11-24 20:30:00,
2013-11-24 20:40:00,45.9,42.2,30.51,NNE,31,1.0,3.0,87,0.00,CLR,CLR,0.00,WeatherDisplay:10.37,2013-11-24 20:40:00,
2013-11-24 20:50:00,45.7,42.0,30.51,ENE,57,1.0,3.0,87,0.00,CLR,CLR,0.00,WeatherDisplay:10.37,2013-11-24 20:50:00,
2013-11-24 21:00:00,45.5,41.9,30.52,SE,135,0.0,2.0,87,0.00,CLR,CLR,0.00,WeatherDisplay:10.37,2013-11-24 21:00:00,
2013-11-24 21:10:00,45.5,41.9,30.52,SE,134,0.0,2.0,87,0.00,CLR,CLR,0.00,WeatherDisplay:10.37,2013-11-24 21:10:00,
2013-11-24 21:20:00,45.3,41.7,30.52,SE,127,1.0,2.0,87,0.00,CLR,CLR,0.00,WeatherDisplay:10.37,2013-11-24 21:20:00,
2013-11-24 21:30:00,45.3,41.7,30.52,East,90,0.0,2.0,87,0.00,CLR,CLR,0.00,WeatherDisplay:10.37,2013-11-24 21:30:00,
2013-11-24 21:40:00,45.3,41.7,30.53,East,97,0.0,2.0,87,0.00,CLR,CLR,0.00,WeatherDisplay:10.37,2013-11-24 21:40:00,
2013-11-24 21:50:00,45.1,41.5,30.53,ESE,111,2.0,4.0,87,0.00,CLR,CLR,0.00,WeatherDisplay:10.37,2013-11-24 21:50:00,
2013-11-24 22:00:00,45.3,42.0,30.53,East,95,2.0,3.0,88,0.00,CLR,CLR,0.00,WeatherDisplay:10.37,2013-11-24 22:00:00,
2013-11-24 22:10:00,45.5,42.2,30.53,East,81,0.0,3.0,88,0.00,CLR,CLR,0.00,WeatherDisplay:10.37,2013-11-24 22:10:00,
2013-11-24 22:20:00,45.1,41.5,30.53,East,94,3.0,6.0,87,0.00,CLR,CLR,0.00,WeatherDisplay:10.37,2013-11-24 22:20:00,
2013-11-24 22:30:00,45.1,41.5,30.53,East,89,3.0,5.0,87,0.00,CLR,CLR,0.00,WeatherDisplay:10.37,2013-11-24 22:30:00,
2013-11-24 22:40:00,45.3,41.7,30.53,East,84,2.0,5.0,87,0.00,CLR,CLR,0.00,WeatherDisplay:10.37,2013-11-24 22:40:00,
2013-11-24 22:50:00,45.3,41.7,30.53,ENE,72,1.0,5.0,87,0.00,CLR,CLR,0.00,WeatherDisplay:10.37,2013-11-24 22:50:00,
2013-11-24 23:00:00,45.3,41.7,30.54,ENE,77,1.0,5.0,87,0.00,CLR,CLR,0.00,WeatherDisplay:10.37,2013-11-24 23:00:00,
2013-11-24 23:10:00,45.2,41.3,30.53,East,84,0.0,3.0,86,0.00,CLR,CLR,0.00,WeatherDisplay:10.37,2013-11-24 23:10:00,
2013-11-24 23:20:00,45.3,41.4,30.54,East,89,2.0,4.0,86,0.00,CLR,CLR,0.00,WeatherDisplay:10.37,2013-11-24 23:20:00,
2013-11-24 23:30:00,44.8,40.8,30.53,East,94,2.0,4.0,86,0.00,CLR,CLR,0.00,WeatherDisplay:10.37,2013-11-24 23:30:00,
2013-11-24 23:40:00,44.8,40.8,30.54,East,93,2.0,5.0,86,0.00,CLR,CLR,0.00,WeatherDisplay:10.37,2013-11-24 23:40:00,
2013-11-24 23:50:00,44.8,41.1,30.54,East,99,1.0,4.0,87,0.00,CLR,CLR,0.00,WeatherDisplay:10.37,2013-11-24 23:50:00,